createdAt,value
2018-04-10T00:00:15.703Z,14.5
2018-04-10T00:01:38.062Z,14.5
2018-04-10T00:03:05.495Z,14.5
2018-04-10T00:04:25.335Z,14.5
2018-04-10T00:05:47.778Z,14.3
2018-04-10T00:07:10.157Z,14.4
2018-04-10T00:08:30.003Z,14.2
2018-04-10T00:09:49.850Z,14.3
2018-04-10T00:11:12.193Z,14.2
2018-04-10T00:12:34.564Z,14.2
2018-04-10T00:13:56.964Z,14.5
2018-04-10T00:15:21.846Z,14.4
2018-04-10T00:16:46.737Z,14.3
2018-04-10T00:18:09.101Z,14.4
2018-04-10T00:19:28.921Z,14.5
2018-04-10T00:20:56.370Z,14.3
2018-04-10T00:22:28.879Z,14.4
2018-04-10T00:23:48.701Z,14.3
2018-04-10T00:25:11.102Z,14.2
2018-04-10T00:26:41.035Z,14.3
2018-04-10T00:28:03.454Z,14.3
2018-04-10T00:29:23.274Z,14.3
2018-04-10T00:30:45.644Z,14.2
2018-04-10T00:32:13.052Z,14.2
2018-04-10T00:33:32.875Z,14.3
2018-04-10T00:34:52.741Z,14.3
2018-04-10T00:36:15.123Z,14.2
2018-04-10T00:37:34.969Z,14.3
2018-04-10T00:38:54.818Z,14.2
2018-04-10T00:40:27.289Z,14.3
2018-04-10T00:41:47.115Z,14.3
2018-04-10T00:43:09.468Z,14.3
2018-04-10T00:44:29.363Z,14.3
2018-04-10T00:45:49.199Z,14.3
2018-04-10T00:47:11.559Z,14.2
2018-04-10T00:48:31.415Z,14.2
2018-04-10T00:49:51.269Z,14.1
2018-04-10T00:51:16.148Z,14
2018-04-10T00:52:38.550Z,14.1
2018-04-10T00:54:08.487Z,14.3
2018-04-10T00:55:30.856Z,14.2
2018-04-10T00:56:53.207Z,14.1
2018-04-10T00:58:18.097Z,14.1
2018-04-10T00:59:37.927Z,14.1
2018-04-10T01:01:00.349Z,14.1
2018-04-10T01:02:20.202Z,14.1
2018-04-10T01:03:42.556Z,14.1
2018-04-10T01:05:02.430Z,14
2018-04-10T01:06:24.831Z,14
2018-04-10T01:07:57.316Z,14.1
2018-04-10T01:09:19.729Z,14.1
2018-04-10T01:10:42.077Z,14.1
2018-04-10T01:12:09.539Z,14.1
2018-04-10T01:13:39.529Z,14
2018-04-10T01:15:04.413Z,14.1
2018-04-10T01:16:26.794Z,14
2018-04-10T01:17:51.727Z,13.9
2018-04-10T01:19:19.179Z,13.9
2018-04-10T01:20:41.548Z,14
2018-04-10T01:22:01.375Z,14
2018-04-10T01:23:31.339Z,14.1
2018-04-10T01:24:56.236Z,14
2018-04-10T01:26:16.101Z,13.9
2018-04-10T01:27:46.050Z,13.9
2018-04-10T01:29:05.902Z,13.9
2018-04-10T01:30:28.265Z,13.8
2018-04-10T01:31:53.196Z,13.9
2018-04-10T01:33:13.071Z,13.8
2018-04-10T01:34:32.980Z,13.9
2018-04-10T01:35:55.393Z,13.8
2018-04-10T01:37:30.441Z,14
2018-04-10T01:38:57.905Z,14
2018-04-10T01:40:17.777Z,13.8
2018-04-10T01:41:37.604Z,13.9
2018-04-10T01:43:02.527Z,13.9
2018-04-10T01:44:22.345Z,13.9
2018-04-10T01:45:44.763Z,13.8
2018-04-10T01:47:04.633Z,13.7
2018-04-10T01:48:24.484Z,13.8
2018-04-10T01:49:49.444Z,13.9
2018-04-10T01:51:09.268Z,13.8
2018-04-10T01:52:34.186Z,13.9
2018-04-10T01:53:54.089Z,13.8
2018-04-10T01:55:18.963Z,13.8
2018-04-10T01:56:41.344Z,14
2018-04-10T01:58:01.170Z,13
2018-04-10T01:59:23.533Z,13.7
2018-04-10T02:00:43.356Z,13.8
2018-04-10T02:02:03.177Z,13.9
2018-04-10T02:03:28.123Z,13.9
2018-04-10T02:04:47.999Z,13.7
2018-04-10T02:06:07.812Z,13.8
2018-04-10T02:07:30.193Z,13.7
2018-04-10T02:09:00.192Z,13.7
2018-04-10T02:10:20.045Z,13.8
2018-04-10T02:11:39.897Z,13.8
2018-04-10T02:12:59.793Z,13.8
2018-04-10T02:14:22.178Z,13.7
2018-04-10T02:15:54.669Z,13.7
2018-04-10T02:17:14.520Z,13.7
2018-04-10T02:18:36.867Z,13.7
2018-04-10T02:19:56.707Z,13.6
2018-04-10T02:21:19.055Z,13.7
2018-04-10T02:22:38.950Z,13.6
2018-04-10T02:24:19.019Z,13.7
2018-04-10T02:25:43.931Z,13.7
2018-04-10T02:27:13.870Z,13.7
2018-04-10T02:28:43.800Z,13.7
2018-04-10T02:30:08.727Z,13.7
2018-04-10T02:31:31.081Z,13.6
2018-04-10T02:32:53.436Z,13.7
2018-04-10T02:34:31.056Z,13.8
2018-04-10T02:35:55.990Z,13.7
2018-04-10T02:37:18.372Z,13.6
2018-04-10T02:38:55.907Z,13.7
2018-04-10T02:40:18.264Z,13.6
2018-04-10T02:41:45.667Z,13.6
2018-04-10T02:43:05.493Z,13.7
2018-04-10T02:44:27.850Z,13.8
2018-04-10T02:45:52.832Z,13.8
2018-04-10T02:47:12.703Z,13.6
2018-04-10T02:48:32.550Z,13.7
2018-04-10T02:50:02.502Z,13.7
2018-04-10T02:51:22.375Z,13.9
2018-04-10T02:52:42.224Z,13.7
2018-04-10T02:54:07.100Z,13.7
2018-04-10T02:55:39.628Z,13.7
2018-04-10T02:57:04.535Z,13.7
2018-04-10T02:58:24.437Z,13.8
2018-04-10T02:59:46.794Z,13.6
2018-04-10T03:01:06.620Z,13.6
2018-04-10T03:02:26.445Z,13.7
2018-04-10T03:03:46.268Z,13.8
2018-04-10T03:05:18.793Z,13.7
2018-04-10T03:06:38.620Z,13.6
2018-04-10T03:07:58.447Z,13.8
2018-04-10T03:09:23.373Z,13.8
2018-04-10T03:10:43.195Z,13.7
2018-04-10T03:12:10.660Z,13.6
2018-04-10T03:13:33.012Z,13.8
2018-04-10T03:14:52.879Z,13.7
2018-04-10T03:16:12.726Z,13.7
2018-04-10T03:17:40.151Z,13.7
2018-04-10T03:19:05.042Z,13
2018-04-10T03:20:24.906Z,13.2
2018-04-10T03:21:44.779Z,13.1
2018-04-10T03:23:09.705Z,13.1
2018-04-10T03:24:37.125Z,13.1
2018-04-10T03:26:04.561Z,13.1
2018-04-10T03:27:29.470Z,13.2
2018-04-10T03:28:51.829Z,13.1
2018-04-10T03:30:19.297Z,13
2018-04-10T03:31:44.207Z,13.1
2018-04-10T03:33:04.060Z,13.1
2018-04-10T03:34:28.950Z,13.1
2018-04-10T03:35:48.799Z,12.8
2018-04-10T03:37:08.680Z,12.9
2018-04-10T03:38:43.750Z,13
2018-04-10T03:40:03.646Z,12.7
2018-04-10T03:41:23.465Z,12.7
2018-04-10T03:42:43.321Z,12.7
2018-04-10T03:44:03.153Z,13.1
2018-04-10T03:45:25.554Z,13.1
2018-04-10T03:46:52.983Z,13.1
2018-04-10T03:48:17.864Z,13
2018-04-10T03:50:10.609Z,13
2018-04-10T03:51:30.430Z,13
2018-04-10T03:52:55.365Z,12.9
2018-04-10T03:54:17.765Z,12.9
2018-04-10T03:55:45.216Z,13.1
2018-04-10T03:57:05.058Z,13.1
2018-04-10T03:58:27.397Z,13.1
2018-04-10T03:59:49.776Z,13.2
2018-04-10T04:01:12.129Z,13
2018-04-10T04:02:42.084Z,13
2018-04-10T04:04:01.909Z,13.1
2018-04-10T04:05:26.782Z,13
2018-04-10T04:06:51.723Z,13
2018-04-10T04:08:11.567Z,13.1
2018-04-10T04:09:41.558Z,13
2018-04-10T04:11:03.945Z,12.4
2018-04-10T04:12:23.786Z,13
2018-04-10T04:13:46.260Z,12.9
2018-04-10T04:15:11.136Z,13
2018-04-10T04:16:33.506Z,12.9
2018-04-10T04:17:53.323Z,13
2018-04-10T04:19:18.198Z,13
2018-04-10T04:20:38.017Z,13
2018-04-10T04:22:05.432Z,12.9
2018-04-10T04:23:25.268Z,13
2018-04-10T04:24:47.686Z,12.9
2018-04-10T04:26:10.046Z,13
2018-04-10T04:27:29.872Z,13
2018-04-10T04:28:52.278Z,12.9
2018-04-10T04:30:14.649Z,12.8
2018-04-10T04:31:42.067Z,12.8
2018-04-10T04:33:04.452Z,12.9
2018-04-10T04:34:26.898Z,12.3
2018-04-10T04:35:46.722Z,12.7
2018-04-10T04:37:14.209Z,11.7
2018-04-10T04:38:36.553Z,12
2018-04-10T04:39:56.394Z,12.8
2018-04-10T04:41:18.822Z,13.6
2018-04-10T04:42:53.854Z,13.3
2018-04-10T04:44:18.774Z,13.3
2018-04-10T04:45:43.690Z,13.2
2018-04-10T04:47:03.512Z,13.3
2018-04-10T04:48:28.424Z,13.1
2018-04-10T04:50:08.570Z,13.3
2018-04-10T04:51:33.486Z,13.6
2018-04-10T04:53:05.983Z,13.5
2018-04-10T04:54:25.800Z,13.5
2018-04-10T04:55:45.646Z,13.6
2018-04-10T04:57:05.471Z,13.6
2018-04-10T04:58:25.292Z,13.5
2018-04-10T04:59:45.114Z,13.4
2018-04-10T05:01:05.014Z,13.5
2018-04-10T05:02:24.843Z,13.6
2018-04-10T05:03:47.244Z,13.6
2018-04-10T05:05:07.061Z,13.6
2018-04-10T05:06:29.437Z,13.6
2018-04-10T05:07:49.337Z,13.7
2018-04-10T05:09:11.688Z,13.5
2018-04-10T05:10:31.508Z,13.5
2018-04-10T05:11:58.950Z,13.5
2018-04-10T05:13:28.913Z,13.4
2018-04-10T05:14:56.335Z,13.3
2018-04-10T05:16:16.167Z,13.5
2018-04-10T05:17:35.998Z,13.6
2018-04-10T05:18:55.838Z,13.7
2018-04-10T05:20:15.671Z,13.6
2018-04-10T05:21:35.513Z,13.6
2018-04-10T05:23:10.511Z,13.6
2018-04-10T05:24:30.324Z,13.6
2018-04-10T05:25:50.197Z,13.7
2018-04-10T05:27:10.072Z,13.7
2018-04-10T05:28:47.607Z,13.6
2018-04-10T05:30:07.482Z,13.7
2018-04-10T05:31:39.950Z,13.7
2018-04-10T05:33:02.350Z,13.6
2018-04-10T05:34:22.178Z,13.6
2018-04-10T05:35:44.583Z,13.7
2018-04-10T05:37:06.946Z,13.6
2018-04-10T05:38:31.891Z,13.6
2018-04-10T05:39:54.267Z,13.8
2018-04-10T05:41:16.662Z,13.8
2018-04-10T05:42:41.550Z,13.8
2018-04-10T05:44:01.367Z,13.7
2018-04-10T05:45:21.247Z,13.6
2018-04-10T05:46:56.269Z,13.6
2018-04-10T05:48:16.138Z,13.8
2018-04-10T05:49:36.013Z,13.6
2018-04-10T05:50:55.882Z,13.7
2018-04-10T05:52:20.762Z,13.7
2018-04-10T05:53:40.603Z,13.8
2018-04-10T05:55:15.649Z,13.8
2018-04-10T05:56:38.002Z,13.9
2018-04-10T05:58:05.427Z,13.8
2018-04-10T05:59:25.264Z,13.9
2018-04-10T06:00:55.231Z,14.1
2018-04-10T06:02:20.106Z,14.1
2018-04-10T06:03:42.518Z,14.1
2018-04-10T06:05:02.333Z,14.1
2018-04-10T06:06:27.226Z,14.1
2018-04-10T06:07:49.586Z,14
2018-04-10T06:09:09.415Z,14.1
2018-04-10T06:10:29.256Z,14
2018-04-10T06:11:49.123Z,14
2018-04-10T06:13:11.504Z,13.9
2018-04-10T06:14:38.965Z,14
2018-04-10T06:16:03.882Z,14.1
2018-04-10T06:17:31.291Z,14.1
2018-04-10T06:18:56.165Z,14
2018-04-10T06:20:18.586Z,14.1
2018-04-10T06:21:53.615Z,14
2018-04-10T06:23:13.469Z,14.1
2018-04-10T06:24:35.828Z,14.3
2018-04-10T06:26:00.772Z,14.3
2018-04-10T06:27:23.121Z,14.1
2018-04-10T06:28:42.968Z,14.2
2018-04-10T06:30:05.385Z,14.3
2018-04-10T06:31:35.376Z,14.4
2018-04-10T06:32:55.222Z,14.3
2018-04-10T06:34:15.117Z,14.4
2018-04-10T06:35:34.934Z,14.4
2018-04-10T06:36:54.806Z,14.4
2018-04-10T06:38:19.686Z,14.4
2018-04-10T06:39:39.507Z,14.3
2018-04-10T06:40:59.389Z,14.5
2018-04-10T06:42:26.810Z,14.5
2018-04-10T06:43:46.680Z,14.4
2018-04-10T06:45:06.499Z,14.5
2018-04-10T06:46:28.875Z,14.5
2018-04-10T06:47:48.733Z,14.6
2018-04-10T06:49:23.801Z,14.6
2018-04-10T06:50:43.668Z,14.5
2018-04-10T06:52:03.568Z,14.5
2018-04-10T06:53:23.423Z,14.4
2018-04-10T06:54:43.276Z,14.3
2018-04-10T06:56:05.664Z,14.4
2018-04-10T06:57:25.477Z,14.7
2018-04-10T06:58:47.821Z,14.8
2018-04-10T07:00:10.193Z,14.6
2018-04-10T07:01:30.017Z,14.7
2018-04-10T07:02:54.957Z,14.8
2018-04-10T07:04:14.824Z,14.9
2018-04-10T07:05:52.369Z,14.9
2018-04-10T07:07:19.795Z,14.8
2018-04-10T07:08:39.621Z,14.7
2018-04-10T07:10:01.982Z,14.7
2018-04-10T07:11:31.936Z,14.7
2018-04-10T07:12:56.810Z,14.7
2018-04-10T07:14:16.666Z,14.8
2018-04-10T07:15:41.539Z,14.8
2018-04-10T07:17:06.424Z,14.8
2018-04-10T07:18:28.810Z,14.8
2018-04-10T07:19:51.160Z,14.8
2018-04-10T07:21:10.981Z,14.9
2018-04-10T07:22:35.865Z,14.9
2018-04-10T07:24:08.377Z,15
2018-04-10T07:25:40.882Z,14.8
2018-04-10T07:27:13.409Z,14.9
2018-04-10T07:28:35.794Z,14.9
2018-04-10T07:29:58.168Z,15
2018-04-10T07:31:18.045Z,15
2018-04-10T07:32:37.885Z,15
2018-04-10T07:33:57.755Z,15
2018-04-10T07:35:17.648Z,14.9
2018-04-10T07:36:42.529Z,14.9
2018-04-10T07:38:12.503Z,14.9
2018-04-10T07:39:32.374Z,15
2018-04-10T07:40:57.264Z,13.2
2018-04-10T07:42:17.133Z,14.2
2018-04-10T07:43:42.070Z,15.4
2018-04-10T07:45:01.893Z,15.4
2018-04-10T07:46:34.424Z,15.4
2018-04-10T07:47:54.323Z,15.4
2018-04-10T07:49:16.672Z,15.4
2018-04-10T07:50:36.515Z,15.5
2018-04-10T07:51:56.383Z,15.5
2018-04-10T07:53:16.210Z,15.5
2018-04-10T07:54:36.025Z,15.6
2018-04-10T07:56:03.467Z,15.4
2018-04-10T07:57:25.833Z,15.4
2018-04-10T07:58:45.673Z,15.4
2018-04-10T08:00:05.498Z,15.5
2018-04-10T08:01:25.316Z,15.5
2018-04-10T08:02:45.163Z,15.5
2018-04-10T08:04:04.982Z,15.5
2018-04-10T08:05:24.845Z,15.6
2018-04-10T08:06:44.704Z,15.5
2018-04-10T08:08:09.624Z,15.7
2018-04-10T08:09:29.463Z,15.7
2018-04-10T08:10:49.296Z,15.7
2018-04-10T08:12:09.120Z,15.8
2018-04-10T08:13:28.951Z,15.8
2018-04-10T08:14:58.897Z,15.8
2018-04-10T08:16:18.753Z,15.8
2018-04-10T08:17:41.106Z,15.8
2018-04-10T08:19:00.966Z,15.8
2018-04-10T08:20:28.454Z,15.9
2018-04-10T08:21:50.814Z,15.9
2018-04-10T08:23:13.190Z,15.9
2018-04-10T08:24:35.538Z,15.9
2018-04-10T08:25:55.382Z,15.8
2018-04-10T08:27:17.747Z,15.9
2018-04-10T08:28:37.570Z,15.9
2018-04-10T08:29:57.441Z,15.9
2018-04-10T08:31:17.317Z,16
2018-04-10T08:32:37.157Z,16.1
2018-04-10T08:33:56.987Z,16
2018-04-10T08:35:16.837Z,16
2018-04-10T08:36:36.665Z,16
2018-04-10T08:37:56.530Z,16
2018-04-10T08:39:18.915Z,16.1
2018-04-10T08:40:51.385Z,16.1
2018-04-10T08:42:16.285Z,16.1
2018-04-10T08:43:36.154Z,16.1
2018-04-10T08:44:55.989Z,16.1
2018-04-10T08:46:23.418Z,16.1
2018-04-10T08:47:43.305Z,16.2
2018-04-10T08:49:03.149Z,16.2
2018-04-10T08:50:23.027Z,16.2
2018-04-10T08:51:42.967Z,15.9
2018-04-10T08:53:05.320Z,15.7
2018-04-10T08:54:25.147Z,14.9
2018-04-10T08:55:55.147Z,15.1
2018-04-10T08:57:14.988Z,15.1
2018-04-10T08:58:37.341Z,16.3
2018-04-10T09:00:02.232Z,16.1
2018-04-10T09:01:22.056Z,16
2018-04-10T09:02:41.877Z,14.7
2018-04-10T09:04:01.698Z,16
2018-04-10T09:05:34.221Z,15.9
2018-04-10T09:06:54.046Z,16.1
2018-04-10T09:08:13.882Z,16.2
2018-04-10T09:09:33.702Z,16.2
2018-04-10T09:10:53.594Z,16.2
2018-04-10T09:12:13.443Z,16.2
2018-04-10T09:13:35.812Z,16.2
2018-04-10T09:14:58.240Z,16.3
2018-04-10T09:16:20.647Z,16.3
2018-04-10T09:17:43.050Z,16.3
2018-04-10T09:19:07.967Z,16.1
2018-04-10T09:20:32.917Z,16.1
2018-04-10T09:21:52.857Z,16.2
2018-04-10T09:23:15.241Z,16.3
2018-04-10T09:24:35.115Z,16.3
2018-04-10T09:26:00.052Z,16.4
2018-04-10T09:27:19.872Z,16.4
2018-04-10T09:28:42.235Z,16.4
2018-04-10T09:30:04.661Z,16.4
2018-04-10T09:31:24.488Z,16.3
2018-04-10T09:32:46.836Z,16.3
2018-04-10T09:34:06.664Z,16.4
2018-04-10T09:35:34.096Z,16.4
2018-04-10T09:36:58.990Z,16.4
2018-04-10T09:38:21.333Z,16.4
2018-04-10T09:39:41.154Z,16.3
2018-04-10T09:41:03.508Z,16.2
2018-04-10T09:42:23.351Z,16.2
2018-04-10T09:43:43.244Z,16.2
2018-04-10T09:45:03.155Z,16.4
2018-04-10T09:46:23.050Z,16.3
2018-04-10T09:47:42.932Z,16.4
2018-04-10T09:49:02.818Z,16.4
2018-04-10T09:50:22.664Z,16.3
2018-04-10T09:51:45.010Z,16.4
2018-04-10T09:53:04.827Z,16.4
2018-04-10T09:54:24.707Z,16.5
2018-04-10T09:55:44.532Z,16.4
2018-04-10T09:57:06.878Z,16.5
2018-04-10T09:58:31.755Z,16.5
2018-04-10T09:59:51.579Z,16.5
2018-04-10T10:01:13.976Z,16.6
2018-04-10T10:02:36.359Z,16.7
2018-04-10T10:03:58.705Z,16.6
2018-04-10T10:05:21.054Z,16.7
2018-04-10T10:06:40.910Z,16.6
2018-04-10T10:08:05.796Z,16.6
2018-04-10T10:09:25.619Z,16.6
2018-04-10T10:10:45.450Z,16.6
2018-04-10T10:12:07.832Z,16.7
2018-04-10T10:13:27.687Z,16.7
2018-04-10T10:14:55.154Z,16.6
2018-04-10T10:16:17.565Z,16.6
2018-04-10T10:17:37.417Z,16.6
2018-04-10T10:18:57.254Z,16.7
2018-04-10T10:20:17.073Z,16.7
2018-04-10T10:21:36.961Z,16.7
2018-04-10T10:22:56.778Z,16.7
2018-04-10T10:24:24.245Z,16.7
2018-04-10T10:25:49.117Z,16.6
2018-04-10T10:27:08.958Z,16.5
2018-04-10T10:28:33.883Z,16.5
2018-04-10T10:29:56.239Z,16.5
2018-04-10T10:31:18.588Z,16.6
2018-04-10T10:32:38.401Z,16.6
2018-04-10T10:34:05.866Z,16.5
2018-04-10T10:35:25.707Z,16.7
2018-04-10T10:36:48.073Z,16.7
2018-04-10T10:38:07.927Z,16.7
2018-04-10T10:39:30.317Z,16.6
2018-04-10T10:40:50.135Z,16.7
2018-04-10T10:42:09.994Z,16.8
2018-04-10T10:43:32.387Z,16.8
2018-04-10T10:44:54.785Z,16.8
2018-04-10T10:46:14.656Z,16.9
2018-04-10T10:47:34.477Z,16.9
2018-04-10T10:48:56.822Z,16.9
2018-04-10T10:50:16.651Z,16.9
2018-04-10T10:51:39.011Z,16.8
2018-04-10T10:53:14.065Z,16.8
2018-04-10T10:54:33.895Z,16.2
2018-04-10T10:55:56.290Z,16.1
2018-04-10T10:57:21.166Z,17
2018-04-10T10:58:53.645Z,17.1
2018-04-10T11:00:16.018Z,17.2
2018-04-10T11:01:35.848Z,17.3
2018-04-10T11:02:55.662Z,17.3
2018-04-10T11:04:15.484Z,17.3
2018-04-10T11:05:35.322Z,17.3
2018-04-10T11:07:02.764Z,17.2
2018-04-10T11:08:25.127Z,17.2
2018-04-10T11:09:44.951Z,17.2
2018-04-10T11:11:07.332Z,17.3
2018-04-10T11:12:27.183Z,17.3
2018-04-10T11:13:49.533Z,17.3
2018-04-10T11:15:09.413Z,17.4
2018-04-10T11:16:36.848Z,17.4
2018-04-10T11:18:04.344Z,17.4
2018-04-10T11:19:36.837Z,17.4
2018-04-10T11:21:04.329Z,17.4
2018-04-10T11:22:24.205Z,17.4
2018-04-10T11:23:44.065Z,17.4
2018-04-10T11:25:06.470Z,17.4
2018-04-10T11:26:26.300Z,17.5
2018-04-10T11:27:48.663Z,17.5
2018-04-10T11:29:08.505Z,17.5
2018-04-10T11:30:28.338Z,17.5
2018-04-10T11:31:48.160Z,17.5
2018-04-10T11:33:13.033Z,17.5
2018-04-10T11:34:40.453Z,17.5
2018-04-10T11:36:00.321Z,17.5
2018-04-10T11:37:25.213Z,17.5
2018-04-10T11:38:45.031Z,17.5
2018-04-10T11:40:07.404Z,17.6
2018-04-10T11:41:27.276Z,17.6
2018-04-10T11:42:49.643Z,17.6
2018-04-10T11:44:09.465Z,17.6
2018-04-10T11:45:29.289Z,17.7
2018-04-10T11:46:49.116Z,17.7
2018-04-10T11:48:08.937Z,17.7
2018-04-10T11:49:36.357Z,17.7
2018-04-10T11:51:01.245Z,17.8
2018-04-10T11:52:23.591Z,17.8
2018-04-10T11:53:45.990Z,17.9
2018-04-10T11:55:05.809Z,17.9
2018-04-10T11:56:30.729Z,18
2018-04-10T11:57:50.593Z,18.1
2018-04-10T11:59:20.552Z,18.2
2018-04-10T12:00:40.425Z,18.3
2018-04-10T12:02:00.251Z,18.4
2018-04-10T12:03:27.704Z,18.4
2018-04-10T12:04:50.110Z,18.5
2018-04-10T12:06:14.988Z,18.6
2018-04-10T12:07:34.878Z,18.7
2018-04-10T12:08:54.744Z,18.8
2018-04-10T12:10:17.174Z,18.9
2018-04-10T12:11:39.577Z,18.9
2018-04-10T12:13:01.975Z,19
2018-04-10T12:14:24.394Z,19.1
2018-04-10T12:15:44.209Z,19.3
2018-04-10T12:17:04.030Z,19.5
2018-04-10T12:18:26.409Z,19.7
2018-04-10T12:19:56.371Z,19.8
2018-04-10T12:21:16.240Z,19.9
2018-04-10T12:22:36.077Z,20
2018-04-10T12:23:55.939Z,20.1
2018-04-10T12:25:15.761Z,20.1
2018-04-10T12:26:38.111Z,20.3
2018-04-10T12:28:00.468Z,20.4
2018-04-10T12:29:20.290Z,20.5
2018-04-10T12:30:40.126Z,20.5
2018-04-10T12:32:05.073Z,20.5
2018-04-10T12:33:27.515Z,20.5
2018-04-10T12:34:47.367Z,20.7
2018-04-10T12:36:07.210Z,20.8
2018-04-10T12:37:29.578Z,20.9
2018-04-10T12:38:49.399Z,21
2018-04-10T12:40:09.227Z,21
2018-04-10T12:41:31.599Z,21.2
2018-04-10T12:42:51.433Z,21.2
2018-04-10T12:44:11.311Z,21.2
2018-04-10T12:45:31.187Z,21.3
2018-04-10T12:46:51.031Z,21.4
2018-04-10T12:48:13.457Z,21.4
2018-04-10T12:49:35.872Z,21.5
2018-04-10T12:50:58.223Z,21.5
2018-04-10T12:52:18.095Z,21.6
2018-04-10T12:53:37.935Z,21.6
2018-04-10T12:54:57.819Z,21.7
2018-04-10T12:56:20.212Z,21.8
2018-04-10T12:57:40.092Z,21.8
2018-04-10T12:58:59.931Z,21.8
2018-04-10T13:00:19.761Z,21.8
2018-04-10T13:01:39.576Z,21.9
2018-04-10T13:02:59.391Z,21.9
2018-04-10T13:04:26.833Z,22.1
2018-04-10T13:05:49.248Z,22
2018-04-10T13:07:11.621Z,22
2018-04-10T13:08:31.439Z,22
2018-04-10T13:09:53.858Z,22
2018-04-10T13:11:13.695Z,22
2018-04-10T13:12:38.583Z,22.1
2018-04-10T13:13:58.430Z,22.2
2018-04-10T13:15:18.248Z,22.2
2018-04-10T13:16:38.106Z,22.1
2018-04-10T13:18:00.512Z,22
2018-04-10T13:19:25.385Z,21.8
2018-04-10T13:20:45.217Z,21.7
2018-04-10T13:22:07.573Z,21.6
2018-04-10T13:23:32.510Z,21.5
2018-04-10T13:24:52.359Z,21.5
2018-04-10T13:26:17.288Z,21.7
2018-04-10T13:27:39.679Z,21.7
2018-04-10T13:28:59.500Z,21.9
2018-04-10T13:30:19.361Z,22.1
2018-04-10T13:31:44.251Z,22.3
2018-04-10T13:33:14.193Z,22.5
2018-04-10T13:34:36.572Z,22.7
2018-04-10T13:35:56.422Z,23
2018-04-10T13:37:16.255Z,23.2
2018-04-10T13:38:38.613Z,23.5
2018-04-10T13:39:58.441Z,23.6
2018-04-10T13:41:18.298Z,23.8
2018-04-10T13:42:40.649Z,24.1
2018-04-10T13:44:00.542Z,24.3
2018-04-10T13:45:25.443Z,24.5
2018-04-10T13:46:50.324Z,24.6
2018-04-10T13:48:15.219Z,24.8
2018-04-10T13:49:45.228Z,24.8
2018-04-10T13:51:05.062Z,24.8
2018-04-10T13:52:24.916Z,25
2018-04-10T13:53:49.794Z,25.2
2018-04-10T13:55:12.172Z,24.9
2018-04-10T13:56:34.605Z,24.9
2018-04-10T13:57:54.421Z,25.1
2018-04-10T13:59:16.832Z,25
2018-04-10T14:00:36.687Z,25
2018-04-10T14:01:56.551Z,25.1
2018-04-10T14:03:16.419Z,25.2
2018-04-10T14:04:36.250Z,25.2
2018-04-10T14:05:56.093Z,25.3
2018-04-10T14:07:18.503Z,25.2
2018-04-10T14:08:40.851Z,25.3
2018-04-10T14:10:03.249Z,25.2
2018-04-10T14:11:25.612Z,25
2018-04-10T14:12:53.040Z,24.9
2018-04-10T14:14:12.907Z,24.6
2018-04-10T14:15:37.815Z,24.6
2018-04-10T14:16:57.635Z,24.5
2018-04-10T14:18:25.052Z,24.4
2018-04-10T14:19:55.010Z,24.2
2018-04-10T14:21:17.362Z,24.4
2018-04-10T14:22:42.289Z,24.5
2018-04-10T14:24:04.681Z,24.6
2018-04-10T14:25:29.569Z,24.6
2018-04-10T14:26:51.953Z,24.5
2018-04-10T14:28:19.377Z,24.3
2018-04-10T14:29:39.243Z,24.4
2018-04-10T14:31:04.131Z,24.5
2018-04-10T14:32:23.996Z,24.3
2018-04-10T14:33:43.817Z,24.4
2018-04-10T14:35:08.720Z,24.3
2018-04-10T14:36:28.546Z,22.7
2018-04-10T14:37:50.903Z,23.3
2018-04-10T14:39:15.827Z,23.7
2018-04-10T14:40:35.647Z,22.9
2018-04-10T14:41:55.484Z,22.1
2018-04-10T14:43:15.307Z,22
2018-04-10T14:44:35.131Z,21.4
2018-04-10T14:45:54.976Z,23.4
2018-04-10T14:47:14.789Z,23.4
2018-04-10T14:48:37.139Z,23.3
2018-04-10T14:49:57.027Z,23
2018-04-10T14:51:16.892Z,23
2018-04-10T14:52:39.277Z,22
2018-04-10T14:54:04.182Z,22.2
2018-04-10T14:55:24.014Z,21.6
2018-04-10T14:56:43.876Z,22.4
2018-04-10T14:58:03.767Z,21.5
2018-04-10T14:59:23.602Z,21.4
2018-04-10T15:00:45.961Z,22.7
2018-04-10T15:02:05.842Z,21.7
2018-04-10T15:03:30.775Z,21.6
2018-04-10T15:04:50.613Z,21.6
2018-04-10T15:06:10.460Z,21.5
2018-04-10T15:07:30.281Z,21.6
2018-04-10T15:08:50.111Z,21.5
2018-04-10T15:10:09.961Z,20.8
2018-04-10T15:11:32.360Z,21.4
2018-04-10T15:12:52.194Z,21
2018-04-10T15:14:14.548Z,21.5
2018-04-10T15:15:44.484Z,20.5
2018-04-10T15:17:14.444Z,20.7
2018-04-10T15:18:34.269Z,20.7
2018-04-10T15:19:54.152Z,20.6
2018-04-10T15:21:13.979Z,20.7
2018-04-10T15:22:33.815Z,20.5
2018-04-10T15:23:56.205Z,20.5
2018-04-10T15:25:16.042Z,20.6
2018-04-10T15:26:35.876Z,20.6
2018-04-10T15:27:55.719Z,20.6
2018-04-10T15:29:15.543Z,20.5
2018-04-10T15:30:35.368Z,20.5
2018-04-10T15:31:57.760Z,20.4
2018-04-10T15:33:17.617Z,20.4
2018-04-10T15:34:37.435Z,20.3
2018-04-10T15:35:57.291Z,20.3
2018-04-10T15:37:17.151Z,20.1
2018-04-10T15:38:42.040Z,20.1
2018-04-10T15:40:06.926Z,19.9
2018-04-10T15:41:26.773Z,19.9
2018-04-10T15:42:49.172Z,19.9
2018-04-10T15:44:09.043Z,20
2018-04-10T15:45:28.866Z,19.8
2018-04-10T15:46:53.766Z,20.9
2018-04-10T15:48:13.606Z,20.6
2018-04-10T15:49:38.490Z,20.5
2018-04-10T15:50:58.356Z,20.5
2018-04-10T15:52:20.759Z,18.4
2018-04-10T15:53:43.147Z,19.8
2018-04-10T15:55:05.554Z,19.6
2018-04-10T15:56:25.432Z,19.7
2018-04-10T15:57:45.255Z,19.3
2018-04-10T15:59:05.088Z,19.8
2018-04-10T16:00:32.507Z,19.6
2018-04-10T16:01:52.327Z,19.5
2018-04-10T16:03:17.290Z,19.2
2018-04-10T16:04:39.650Z,19.3
2018-04-10T16:05:59.469Z,19.3
2018-04-10T16:07:19.344Z,19.3
2018-04-10T16:08:39.224Z,19.4
2018-04-10T16:10:04.126Z,18.7
2018-04-10T16:11:23.947Z,19.3
2018-04-10T16:12:43.767Z,20.2
2018-04-10T16:14:03.642Z,19.2
2018-04-10T16:15:28.553Z,18.9
2018-04-10T16:16:55.995Z,18.7
2018-04-10T16:18:15.870Z,18.1
2018-04-10T16:19:35.719Z,18.8
2018-04-10T16:21:00.609Z,18.8
2018-04-10T16:22:20.502Z,18.4
2018-04-10T16:23:47.924Z,18.8
2018-04-10T16:25:20.436Z,17.8
2018-04-10T16:26:40.259Z,18
2018-04-10T16:28:02.648Z,16.3
2018-04-10T16:29:22.496Z,18.7
2018-04-10T16:30:44.858Z,17.9
2018-04-10T16:32:04.676Z,18.2
2018-04-10T16:33:24.544Z,17.3
2018-04-10T16:34:44.389Z,17.4
2018-04-10T16:36:11.813Z,17.8
2018-04-10T16:37:31.677Z,16.5
2018-04-10T16:38:51.527Z,16.6
2018-04-10T16:40:11.445Z,17.9
2018-04-10T16:41:31.316Z,16.6
2018-04-10T16:42:53.691Z,18.9
2018-04-10T16:44:13.607Z,18.4
2018-04-10T16:45:33.432Z,16.6
2018-04-10T16:47:03.451Z,16.8
2018-04-10T16:48:23.283Z,16.9
2018-04-10T16:49:48.179Z,15.7
2018-04-10T16:51:13.061Z,15.9
2018-04-10T16:52:35.409Z,17.3
2018-04-10T16:53:55.280Z,16.9
2018-04-10T16:55:22.726Z,19.4
2018-04-10T16:56:42.609Z,19.3
2018-04-10T16:58:02.432Z,19.3
2018-04-10T16:59:27.348Z,18.9
2018-04-10T17:00:52.231Z,18.3
2018-04-10T17:02:12.096Z,17.4
2018-04-10T17:03:34.472Z,17.3
2018-04-10T17:04:54.331Z,17.1
2018-04-10T17:06:19.240Z,16.9
2018-04-10T17:07:39.070Z,17.5
2018-04-10T17:08:58.888Z,17.5
2018-04-10T17:10:21.285Z,17.3
2018-04-10T17:11:41.159Z,17.1
2018-04-10T17:13:01.003Z,17.1
2018-04-10T17:14:25.916Z,17.2
2018-04-10T17:15:45.766Z,17
2018-04-10T17:17:08.152Z,16.8
2018-04-10T17:18:27.998Z,16.9
2018-04-10T17:19:47.873Z,17.1
2018-04-10T17:21:07.696Z,18.8
2018-04-10T17:22:27.518Z,16.9
2018-04-10T17:23:47.336Z,16.8
2018-04-10T17:25:07.204Z,16.6
2018-04-10T17:26:32.094Z,16.7
2018-04-10T17:27:51.915Z,16.7
2018-04-10T17:29:14.274Z,16.7
2018-04-10T17:30:34.149Z,16.7
2018-04-10T17:31:53.968Z,16.5
2018-04-10T17:33:18.902Z,16.6
2018-04-10T17:34:41.273Z,16.4
2018-04-10T17:36:01.134Z,16.4
2018-04-10T17:37:20.986Z,16.4
2018-04-10T17:38:43.348Z,16.4
2018-04-10T17:40:05.735Z,16.2
2018-04-10T17:41:25.595Z,16.2
2018-04-10T17:42:48.005Z,16.3
2018-04-10T17:44:10.369Z,16.2
2018-04-10T17:45:30.212Z,16.7
2018-04-10T17:46:50.088Z,16.6
2018-04-10T17:48:17.513Z,16.9
2018-04-10T17:49:37.392Z,17
2018-04-10T17:50:59.739Z,17.1
2018-04-10T17:52:24.619Z,17
2018-04-10T17:53:44.442Z,17
2018-04-10T17:55:06.796Z,15.1
2018-04-10T17:56:29.151Z,17
2018-04-10T17:57:51.544Z,16.8
2018-04-10T17:59:26.600Z,16.7
2018-04-10T18:00:46.483Z,16.5
2018-04-10T18:02:08.842Z,16.6
2018-04-10T18:03:28.656Z,16.6
2018-04-10T18:04:48.482Z,16.5
2018-04-10T18:06:10.862Z,16.7
2018-04-10T18:07:33.250Z,16.6
2018-04-10T18:08:53.076Z,16.6
2018-04-10T18:10:15.513Z,16.6
2018-04-10T18:11:35.359Z,16.6
2018-04-10T18:12:57.764Z,16.5
2018-04-10T18:14:22.676Z,16.5
2018-04-10T18:15:42.493Z,16.4
2018-04-10T18:17:02.375Z,16.4
2018-04-10T18:18:24.760Z,16.3
2018-04-10T18:19:47.124Z,16.2
2018-04-10T18:21:06.977Z,16.3
2018-04-10T18:22:26.855Z,16.4
2018-04-10T18:23:54.299Z,16.3
2018-04-10T18:25:14.131Z,16.3